sensor_id;sensor_type;location;lat;lon;timestamp;pressure;altitude;pressure_sealevel;temperature;humidity
64610;BME280;51019;46.090;6.350;2023-01-08T00:01:10;96302.56;;;1.09;100.00
64610;BME280;51019;46.090;6.350;2023-01-08T00:03:38;96321.56;;;1.36;100.00
64610;BME280;51019;46.090;6.350;2023-01-08T00:06:10;96295.31;;;1.30;100.00
64610;BME280;51019;46.090;6.350;2023-01-08T00:08:38;96323.88;;;1.69;100.00
64610;BME280;51019;46.090;6.350;2023-01-08T00:11:06;96332.47;;;1.56;100.00
64610;BME280;51019;46.090;6.350;2023-01-08T00:13:33;96335.06;;;1.56;100.00
64610;BME280;51019;46.090;6.350;2023-01-08T00:16:05;96301.19;;;1.60;100.00
64610;BME280;51019;46.090;6.350;2023-01-08T00:18:32;96301.19;;;1.74;100.00
64610;BME280;51019;46.090;6.350;2023-01-08T00:21:00;96294.69;;;1.96;100.00
64610;BME280;51019;46.090;6.350;2023-01-08T00:23:29;96298.88;;;2.25;100.00
64610;BME280;51019;46.090;6.350;2023-01-08T00:26:00;96288.16;;;2.17;100.00
64610;BME280;51019;46.090;6.350;2023-01-08T00:28:27;96223.69;;;1.60;100.00
64610;BME280;51019;46.090;6.350;2023-01-08T00:30:55;96280.66;;;2.00;100.00
64610;BME280;51019;46.090;6.350;2023-01-08T00:33:22;96270.66;;;2.35;100.00
64610;BME280;51019;46.090;6.350;2023-01-08T00:35:49;96263.06;;;2.59;100.00
64610;BME280;51019;46.090;6.350;2023-01-08T00:38:17;96251.06;;;2.70;100.00
64610;BME280;51019;46.090;6.350;2023-01-08T00:40:47;96242.47;;;2.57;100.00
64610;BME280;51019;46.090;6.350;2023-01-08T00:43:14;96213.78;;;2.47;100.00
64610;BME280;51019;46.090;6.350;2023-01-08T00:45:41;96148.56;;;2.30;100.00
64610;BME280;51019;46.090;6.350;2023-01-08T00:48:09;96198.88;;;2.64;100.00
64610;BME280;51019;46.090;6.350;2023-01-08T00:50:37;96211.41;;;3.08;100.00
64610;BME280;51019;46.090;6.350;2023-01-08T00:53:04;96134.19;;;2.76;100.00
64610;BME280;51019;46.090;6.350;2023-01-08T00:55:31;96191.31;;;3.24;100.00
64610;BME280;51019;46.090;6.350;2023-01-08T00:58:00;96196.50;;;3.11;100.00
64610;BME280;51019;46.090;6.350;2023-01-08T01:00:28;96121.16;;;2.78;100.00
64610;BME280;51019;46.090;6.350;2023-01-08T01:02:55;96169.16;;;3.07;100.00
64610;BME280;51019;46.090;6.350;2023-01-08T01:05:23;96168.31;;;3.19;100.00
64610;BME280;51019;46.090;6.350;2023-01-08T01:07:50;96175.69;;;3.25;100.00
64610;BME280;51019;46.090;6.350;2023-01-08T01:10:17;96179.09;;;3.26;100.00
64610;BME280;51019;46.090;6.350;2023-01-08T01:12:45;96179.03;;;3.39;100.00
64610;BME280;51019;46.090;6.350;2023-01-08T01:15:16;96177.91;;;4.03;100.00
64610;BME280;51019;46.090;6.350;2023-01-08T01:17:44;96058.22;;;3.61;100.00
64610;BME280;51019;46.090;6.350;2023-01-08T01:20:14;96095.59;;;3.94;100.00
64610;BME280;51019;46.090;6.350;2023-01-08T01:22:43;96144.25;;;4.25;100.00
64610;BME280;51019;46.090;6.350;2023-01-08T01:25:11;96107.16;;;4.01;100.00
64610;BME280;51019;46.090;6.350;2023-01-08T01:27:38;96151.78;;;4.17;100.00
64610;BME280;51019;46.090;6.350;2023-01-08T01:30:07;96142.69;;;4.12;100.00
64610;BME280;51019;46.090;6.350;2023-01-08T01:32:36;96163.06;;;4.05;100.00
64610;BME280;51019;46.090;6.350;2023-01-08T01:35:05;96155.22;;;3.94;100.00
64610;BME280;51019;46.090;6.350;2023-01-08T01:37:32;96150.69;;;3.85;100.00
64610;BME280;51019;46.090;6.350;2023-01-08T01:39:59;96155.59;;;3.77;100.00
64610;BME280;51019;46.090;6.350;2023-01-08T01:42:27;96143.63;;;3.63;100.00
64610;BME280;51019;46.090;6.350;2023-01-08T01:45:15;96143.97;;;3.82;100.00
64610;BME280;51019;46.090;6.350;2023-01-08T01:47:47;96092.75;;;3.38;100.00
64610;BME280;51019;46.090;6.350;2023-01-08T01:50:19;96142.59;;;3.65;100.00
64610;BME280;51019;46.090;6.350;2023-01-08T01:52:51;96140.81;;;3.66;100.00
64610;BME280;51019;46.090;6.350;2023-01-08T01:55:20;96141.81;;;3.52;100.00
64610;BME280;51019;46.090;6.350;2023-01-08T01:57:54;96144.56;;;3.62;100.00
64610;BME280;51019;46.090;6.350;2023-01-08T02:00:25;96154.00;;;3.63;100.00
64610;BME280;51019;46.090;6.350;2023-01-08T02:02:55;96145.63;;;3.59;100.00
64610;BME280;51019;46.090;6.350;2023-01-08T02:05:28;96125.09;;;3.33;100.00
64610;BME280;51019;46.090;6.350;2023-01-08T02:08:04;96103.59;;;3.43;100.00
64610;BME280;51019;46.090;6.350;2023-01-08T02:10:37;96121.03;;;3.65;100.00
64610;BME280;51019;46.090;6.350;2023-01-08T02:13:11;96122.94;;;3.50;100.00
64610;BME280;51019;46.090;6.350;2023-01-08T02:15:41;96130.28;;;3.56;100.00
64610;BME280;51019;46.090;6.350;2023-01-08T02:18:17;96130.34;;;3.68;100.00
64610;BME280;51019;46.090;6.350;2023-01-08T02:20:49;96134.59;;;3.69;100.00
64610;BME280;51019;46.090;6.350;2023-01-08T02:23:26;96104.53;;;3.42;100.00
64610;BME280;51019;46.090;6.350;2023-01-08T02:26:16;96076.03;;;3.06;100.00
64610;BME280;51019;46.090;6.350;2023-01-08T02:28:50;96150.69;;;3.37;100.00
64610;BME280;51019;46.090;6.350;2023-01-08T02:31:20;96157.91;;;3.45;100.00
64610;BME280;51019;46.090;6.350;2023-01-08T02:33:49;96154.66;;;3.54;100.00
64610;BME280;51019;46.090;6.350;2023-01-08T02:36:37;96154.47;;;3.44;100.00
64610;BME280;51019;46.090;6.350;2023-01-08T02:39:47;96179.47;;;3.45;100.00
64610;BME280;51019;46.090;6.350;2023-01-08T02:42:23;96167.28;;;3.58;100.00
64610;BME280;51019;46.090;6.350;2023-01-08T02:44:57;96160.06;;;3.75;100.00
64610;BME280;51019;46.090;6.350;2023-01-08T02:47:29;96158.72;;;3.82;100.00
64610;BME280;51019;46.090;6.350;2023-01-08T02:50:04;96158.97;;;3.90;100.00
64610;BME280;51019;46.090;6.350;2023-01-08T02:52:39;96137.97;;;3.82;100.00
64610;BME280;51019;46.090;6.350;2023-01-08T02:55:08;96165.28;;;3.62;100.00
64610;BME280;51019;46.090;6.350;2023-01-08T02:57:38;96115.88;;;3.52;100.00
64610;BME280;51019;46.090;6.350;2023-01-08T03:00:07;96169.28;;;3.79;100.00
64610;BME280;51019;46.090;6.350;2023-01-08T03:02:38;96164.06;;;3.91;100.00
64610;BME280;51019;46.090;6.350;2023-01-08T03:05:11;96171.56;;;3.83;100.00
64610;BME280;51019;46.090;6.350;2023-01-08T03:07:39;96178.38;;;3.60;100.00
64610;BME280;51019;46.090;6.350;2023-01-08T03:10:07;96179.53;;;3.56;100.00
64610;BME280;51019;46.090;6.350;2023-01-08T03:12:44;96152.94;;;3.65;100.00
64610;BME280;51019;46.090;6.350;2023-01-08T03:15:18;96188.81;;;3.72;100.00
64610;BME280;51019;46.090;6.350;2023-01-08T03:17:49;96173.53;;;3.80;100.00
64610;BME280;51019;46.090;6.350;2023-01-08T03:20:20;96184.75;;;3.80;100.00
64610;BME280;51019;46.090;6.350;2023-01-08T03:22:51;96182.69;;;3.96;100.00
64610;BME280;51019;46.090;6.350;2023-01-08T03:25:22;96188.16;;;3.81;100.00
64610;BME280;51019;46.090;6.350;2023-01-08T03:27:55;96205.47;;;3.80;100.00
64610;BME280;51019;46.090;6.350;2023-01-08T03:30:26;96196.16;;;4.01;100.00
64610;BME280;51019;46.090;6.350;2023-01-08T03:32:56;96137.66;;;3.74;100.00
64610;BME280;51019;46.090;6.350;2023-01-08T03:35:26;96143.47;;;3.77;100.00
64610;BME280;51019;46.090;6.350;2023-01-08T03:37:56;96174.94;;;4.08;100.00
64610;BME280;51019;46.090;6.350;2023-01-08T03:40:29;96161.03;;;4.09;100.00
64610;BME280;51019;46.090;6.350;2023-01-08T03:42:59;96155.28;;;4.05;100.00
64610;BME280;51019;46.090;6.350;2023-01-08T03:45:29;96069.91;;;3.67;100.00
64610;BME280;51019;46.090;6.350;2023-01-08T03:47:58;96111.81;;;3.85;100.00
64610;BME280;51019;46.090;6.350;2023-01-08T03:50:30;96130.75;;;4.09;100.00
64610;BME280;51019;46.090;6.350;2023-01-08T03:52:58;96123.88;;;3.97;100.00
64610;BME280;51019;46.090;6.350;2023-01-08T03:55:25;96145.91;;;3.91;100.00
64610;BME280;51019;46.090;6.350;2023-01-08T03:57:53;96125.09;;;4.04;100.00
64610;BME280;51019;46.090;6.350;2023-01-08T04:00:22;96136.59;;;4.24;100.00
64610;BME280;51019;46.090;6.350;2023-01-08T04:02:50;96113.38;;;4.33;100.00
64610;BME280;51019;46.090;6.350;2023-01-08T04:05:17;96090.13;;;4.21;100.00
64610;BME280;51019;46.090;6.350;2023-01-08T04:07:44;96019.69;;;3.92;100.00
64610;BME280;51019;46.090;6.350;2023-01-08T04:10:12;96036.50;;;4.44;100.00
64610;BME280;51019;46.090;6.350;2023-01-08T04:12:40;95998.50;;;4.09;100.00
64610;BME280;51019;46.090;6.350;2023-01-08T04:15:09;96058.31;;;4.74;100.00
64610;BME280;51019;46.090;6.350;2023-01-08T04:17:38;96035.22;;;4.60;100.00
64610;BME280;51019;46.090;6.350;2023-01-08T04:20:07;96043.84;;;4.61;100.00
64610;BME280;51019;46.090;6.350;2023-01-08T04:22:35;96010.22;;;4.37;100.00
64610;BME280;51019;46.090;6.350;2023-01-08T04:25:03;96059.88;;;4.66;100.00
64610;BME280;51019;46.090;6.350;2023-01-08T04:27:30;96060.34;;;4.49;100.00
64610;BME280;51019;46.090;6.350;2023-01-08T04:29:57;96061.63;;;4.43;100.00
64610;BME280;51019;46.090;6.350;2023-01-08T04:32:25;96067.63;;;4.44;100.00
64610;BME280;51019;46.090;6.350;2023-01-08T04:34:54;96074.88;;;4.51;100.00
64610;BME280;51019;46.090;6.350;2023-01-08T04:37:21;96085.00;;;4.54;100.00
64610;BME280;51019;46.090;6.350;2023-01-08T04:39:49;96110.13;;;4.54;100.00
64610;BME280;51019;46.090;6.350;2023-01-08T04:42:16;96077.78;;;4.47;100.00
64610;BME280;51019;46.090;6.350;2023-01-08T04:44:43;96075.78;;;4.39;100.00
64610;BME280;51019;46.090;6.350;2023-01-08T04:47:11;96056.50;;;4.19;100.00
64610;BME280;51019;46.090;6.350;2023-01-08T04:49:38;95988.53;;;3.70;100.00
64610;BME280;51019;46.090;6.350;2023-01-08T04:52:07;96070.59;;;4.28;100.00
64610;BME280;51019;46.090;6.350;2023-01-08T04:54:35;96074.56;;;4.32;100.00
64610;BME280;51019;46.090;6.350;2023-01-08T04:57:02;96070.00;;;4.47;100.00
64610;BME280;51019;46.090;6.350;2023-01-08T04:59:29;96059.03;;;4.43;100.00
64610;BME280;51019;46.090;6.350;2023-01-08T05:01:57;96038.16;;;4.45;100.00
64610;BME280;51019;46.090;6.350;2023-01-08T05:04:25;96055.38;;;4.46;100.00
64610;BME280;51019;46.090;6.350;2023-01-08T05:06:52;96063.28;;;4.44;100.00
64610;BME280;51019;46.090;6.350;2023-01-08T05:09:21;96065.66;;;4.47;100.00
64610;BME280;51019;46.090;6.350;2023-01-08T05:11:49;96065.28;;;4.52;100.00
64610;BME280;51019;46.090;6.350;2023-01-08T05:14:16;96036.03;;;4.27;100.00
64610;BME280;51019;46.090;6.350;2023-01-08T05:16:44;96032.94;;;4.22;100.00
64610;BME280;51019;46.090;6.350;2023-01-08T05:19:12;95974.41;;;3.85;100.00
64610;BME280;51019;46.090;6.350;2023-01-08T05:21:39;96038.34;;;4.19;100.00
64610;BME280;51019;46.090;6.350;2023-01-08T05:24:06;96028.94;;;4.52;100.00
64610;BME280;51019;46.090;6.350;2023-01-08T05:26:36;96026.00;;;4.23;100.00
64610;BME280;51019;46.090;6.350;2023-01-08T05:29:03;96024.81;;;4.16;100.00
64610;BME280;51019;46.090;6.350;2023-01-08T05:31:30;96031.75;;;4.15;100.00
64610;BME280;51019;46.090;6.350;2023-01-08T05:33:58;96023.28;;;4.47;100.00
64610;BME280;51019;46.090;6.350;2023-01-08T05:36:25;96011.88;;;4.38;100.00
64610;BME280;51019;46.090;6.350;2023-01-08T05:38:53;96005.34;;;4.44;100.00
64610;BME280;51019;46.090;6.350;2023-01-08T05:41:21;96015.72;;;4.32;100.00
64610;BME280;51019;46.090;6.350;2023-01-08T05:43:50;96014.69;;;4.24;100.00
64610;BME280;51019;46.090;6.350;2023-01-08T05:46:18;95959.59;;;4.09;100.00
64610;BME280;51019;46.090;6.350;2023-01-08T05:48:45;95990.28;;;4.26;100.00
64610;BME280;51019;46.090;6.350;2023-01-08T05:51:12;96012.91;;;4.47;100.00
64610;BME280;51019;46.090;6.350;2023-01-08T05:53:40;95997.94;;;4.39;100.00
64610;BME280;51019;46.090;6.350;2023-01-08T05:56:09;96004.53;;;4.43;100.00
64610;BME280;51019;46.090;6.350;2023-01-08T05:58:37;96034.94;;;4.30;100.00
64610;BME280;51019;46.090;6.350;2023-01-08T06:01:08;96043.44;;;4.32;100.00
64610;BME280;51019;46.090;6.350;2023-01-08T06:03:36;96051.22;;;4.32;100.00
64610;BME280;51019;46.090;6.350;2023-01-08T06:06:05;96062.56;;;4.53;100.00
64610;BME280;51019;46.090;6.350;2023-01-08T06:08:33;96042.38;;;4.23;100.00
64610;BME280;51019;46.090;6.350;2023-01-08T06:11:02;96075.53;;;4.53;100.00
64610;BME280;51019;46.090;6.350;2023-01-08T06:13:30;96093.03;;;4.51;100.00
64610;BME280;51019;46.090;6.350;2023-01-08T06:15:58;96073.31;;;4.49;100.00
64610;BME280;51019;46.090;6.350;2023-01-08T06:18:28;96097.25;;;4.63;100.00
64610;BME280;51019;46.090;6.350;2023-01-08T06:20:56;96098.56;;;4.47;100.00
64610;BME280;51019;46.090;6.350;2023-01-08T06:23:24;96105.19;;;4.51;100.00
64610;BME280;51019;46.090;6.350;2023-01-08T06:25:52;96109.16;;;4.55;100.00
64610;BME280;51019;46.090;6.350;2023-01-08T06:28:20;96099.34;;;4.36;100.00
64610;BME280;51019;46.090;6.350;2023-01-08T06:30:47;96053.44;;;4.03;100.00
64610;BME280;51019;46.090;6.350;2023-01-08T06:33:15;96128.38;;;4.52;100.00
64610;BME280;51019;46.090;6.350;2023-01-08T06:35:44;96122.88;;;4.68;100.00
64610;BME280;51019;46.090;6.350;2023-01-08T06:38:11;96138.94;;;4.62;100.00
64610;BME280;51019;46.090;6.350;2023-01-08T06:40:39;96155.72;;;4.34;100.00
64610;BME280;51019;46.090;6.350;2023-01-08T06:43:06;96114.53;;;4.29;100.00
64610;BME280;51019;46.090;6.350;2023-01-08T06:45:33;96097.06;;;4.20;100.00
64610;BME280;51019;46.090;6.350;2023-01-08T06:48:01;96116.72;;;4.47;100.00
64610;BME280;51019;46.090;6.350;2023-01-08T06:50:29;96129.41;;;4.27;100.00
64610;BME280;51019;46.090;6.350;2023-01-08T06:52:59;96081.97;;;4.14;100.00
64610;BME280;51019;46.090;6.350;2023-01-08T06:55:28;96147.59;;;4.38;100.00
64610;BME280;51019;46.090;6.350;2023-01-08T06:57:57;96130.34;;;4.26;100.00
64610;BME280;51019;46.090;6.350;2023-01-08T07:00:25;96148.50;;;4.26;100.00
64610;BME280;51019;46.090;6.350;2023-01-08T07:02:53;96156.28;;;4.26;100.00
64610;BME280;51019;46.090;6.350;2023-01-08T07:05:21;96153.91;;;4.23;100.00
64610;BME280;51019;46.090;6.350;2023-01-08T07:07:49;96076.50;;;3.95;100.00
64610;BME280;51019;46.090;6.350;2023-01-08T07:10:18;96163.88;;;4.41;100.00
64610;BME280;51019;46.090;6.350;2023-01-08T07:12:48;96132.13;;;4.26;100.00
64610;BME280;51019;46.090;6.350;2023-01-08T07:15:16;96158.66;;;4.29;100.00
64610;BME280;51019;46.090;6.350;2023-01-08T07:17:44;96142.44;;;4.50;100.00
64610;BME280;51019;46.090;6.350;2023-01-08T07:20:11;96123.19;;;4.52;100.00
64610;BME280;51019;46.090;6.350;2023-01-08T07:22:38;96096.38;;;4.29;100.00
64610;BME280;51019;46.090;6.350;2023-01-08T07:25:06;96124.50;;;4.47;100.00
64610;BME280;51019;46.090;6.350;2023-01-08T07:27:36;96112.13;;;4.39;100.00
64610;BME280;51019;46.090;6.350;2023-01-08T07:30:04;96117.53;;;4.36;100.00
64610;BME280;51019;46.090;6.350;2023-01-08T07:32:32;96142.91;;;4.55;100.00
64610;BME280;51019;46.090;6.350;2023-01-08T07:34:59;96143.28;;;4.50;100.00
64610;BME280;51019;46.090;6.350;2023-01-08T07:37:26;96151.66;;;4.65;100.00
64610;BME280;51019;46.090;6.350;2023-01-08T07:39:54;96149.78;;;4.78;100.00
64610;BME280;51019;46.090;6.350;2023-01-08T07:42:21;96082.25;;;4.33;100.00
64610;BME280;51019;46.090;6.350;2023-01-08T07:44:52;96085.22;;;4.40;100.00
64610;BME280;51019;46.090;6.350;2023-01-08T07:47:19;96113.00;;;4.73;100.00
64610;BME280;51019;46.090;6.350;2023-01-08T07:49:47;96129.16;;;4.99;100.00
64610;BME280;51019;46.090;6.350;2023-01-08T07:52:14;96149.81;;;5.00;100.00
64610;BME280;51019;46.090;6.350;2023-01-08T07:54:41;96149.56;;;4.92;100.00
64610;BME280;51019;46.090;6.350;2023-01-08T07:57:09;96138.25;;;4.93;100.00
64610;BME280;51019;46.090;6.350;2023-01-08T07:59:36;96138.69;;;4.98;100.00
64610;BME280;51019;46.090;6.350;2023-01-08T08:02:05;96140.03;;;4.93;100.00
64610;BME280;51019;46.090;6.350;2023-01-08T08:04:33;96123.72;;;5.13;100.00
64610;BME280;51019;46.090;6.350;2023-01-08T08:07:00;96138.47;;;5.24;100.00
64610;BME280;51019;46.090;6.350;2023-01-08T08:09:28;96055.50;;;4.66;100.00
64610;BME280;51019;46.090;6.350;2023-01-08T08:11:55;96099.75;;;4.98;100.00
64610;BME280;51019;46.090;6.350;2023-01-08T08:14:24;96115.59;;;4.95;100.00
64610;BME280;51019;46.090;6.350;2023-01-08T08:16:52;96129.63;;;5.04;100.00
64610;BME280;51019;46.090;6.350;2023-01-08T08:19:21;96121.25;;;5.00;100.00
64610;BME280;51019;46.090;6.350;2023-01-08T08:21:49;96122.06;;;5.23;100.00
64610;BME280;51019;46.090;6.350;2023-01-08T08:24:17;96096.91;;;5.13;100.00
64610;BME280;51019;46.090;6.350;2023-01-08T08:26:44;96108.63;;;5.18;100.00
64610;BME280;51019;46.090;6.350;2023-01-08T08:29:11;96110.28;;;5.19;100.00
64610;BME280;51019;46.090;6.350;2023-01-08T08:31:38;96106.13;;;5.05;100.00
64610;BME280;51019;46.090;6.350;2023-01-08T08:34:07;96104.00;;;5.10;100.00
64610;BME280;51019;46.090;6.350;2023-01-08T08:36:36;96104.94;;;5.21;100.00
64610;BME280;51019;46.090;6.350;2023-01-08T08:39:03;96102.31;;;5.32;100.00
64610;BME280;51019;46.090;6.350;2023-01-08T08:41:30;96094.47;;;5.54;100.00
64610;BME280;51019;46.090;6.350;2023-01-08T08:43:58;96096.09;;;5.66;100.00
64610;BME280;51019;46.090;6.350;2023-01-08T08:46:28;96093.34;;;5.36;100.00
64610;BME280;51019;46.090;6.350;2023-01-08T08:48:55;95995.47;;;4.60;100.00
64610;BME280;51019;46.090;6.350;2023-01-08T08:51:22;96097.00;;;5.22;100.00
64610;BME280;51019;46.090;6.350;2023-01-08T08:53:52;96028.13;;;4.85;100.00
64610;BME280;51019;46.090;6.350;2023-01-08T08:56:19;96084.84;;;5.34;100.00
64610;BME280;51019;46.090;6.350;2023-01-08T08:58:46;96082.09;;;5.46;100.00
64610;BME280;51019;46.090;6.350;2023-01-08T09:01:16;96082.69;;;5.50;100.00
64610;BME280;51019;46.090;6.350;2023-01-08T09:03:43;96077.09;;;5.55;100.00
64610;BME280;51019;46.090;6.350;2023-01-08T09:06:14;96070.13;;;5.55;100.00
64610;BME280;51019;46.090;6.350;2023-01-08T09:08:41;96072.72;;;5.55;100.00
64610;BME280;51019;46.090;6.350;2023-01-08T09:11:10;96064.94;;;5.55;100.00
64610;BME280;51019;46.090;6.350;2023-01-08T09:13:38;96085.97;;;5.63;100.00
64610;BME280;51019;46.090;6.350;2023-01-08T09:16:06;96079.97;;;5.52;100.00
64610;BME280;51019;46.090;6.350;2023-01-08T09:18:33;96081.00;;;5.60;100.00
64610;BME280;51019;46.090;6.350;2023-01-08T09:21:04;96081.94;;;5.59;100.00
64610;BME280;51019;46.090;6.350;2023-01-08T09:23:31;96076.22;;;5.65;100.00
64610;BME280;51019;46.090;6.350;2023-01-08T09:25:59;96080.78;;;5.84;100.00
64610;BME280;51019;46.090;6.350;2023-01-08T09:28:29;96087.94;;;6.03;100.00
64610;BME280;51019;46.090;6.350;2023-01-08T09:31:00;96073.81;;;6.16;100.00
64610;BME280;51019;46.090;6.350;2023-01-08T09:33:28;96053.94;;;6.15;100.00
64610;BME280;51019;46.090;6.350;2023-01-08T09:35:55;96062.69;;;6.35;100.00
64610;BME280;51019;46.090;6.350;2023-01-08T09:38:23;96073.44;;;6.42;100.00
64610;BME280;51019;46.090;6.350;2023-01-08T09:40:54;96061.38;;;6.41;100.00
64610;BME280;51019;46.090;6.350;2023-01-08T09:43:24;96032.06;;;6.48;100.00
64610;BME280;51019;46.090;6.350;2023-01-08T09:45:56;96039.75;;;6.50;100.00
64610;BME280;51019;46.090;6.350;2023-01-08T09:48:27;95997.28;;;6.19;100.00
64610;BME280;51019;46.090;6.350;2023-01-08T09:50:56;96039.44;;;6.64;100.00
64610;BME280;51019;46.090;6.350;2023-01-08T09:53:24;96050.59;;;6.76;100.00
64610;BME280;51019;46.090;6.350;2023-01-08T09:55:55;96050.72;;;6.74;100.00
64610;BME280;51019;46.090;6.350;2023-01-08T09:58:34;96036.38;;;6.59;100.00
64610;BME280;51019;46.090;6.350;2023-01-08T10:01:05;96040.94;;;6.67;100.00
64610;BME280;51019;46.090;6.350;2023-01-08T10:03:39;96015.13;;;6.54;100.00
64610;BME280;51019;46.090;6.350;2023-01-08T10:06:11;96004.97;;;6.51;100.00
64610;BME280;51019;46.090;6.350;2023-01-08T10:08:39;96020.88;;;6.57;100.00
64610;BME280;51019;46.090;6.350;2023-01-08T10:11:09;96027.53;;;6.71;100.00
64610;BME280;51019;46.090;6.350;2023-01-08T10:13:38;95957.22;;;6.31;100.00
64610;BME280;51019;46.090;6.350;2023-01-08T10:16:10;95953.25;;;6.37;100.00
64610;BME280;51019;46.090;6.350;2023-01-08T10:18:44;95991.09;;;6.81;100.00
64610;BME280;51019;46.090;6.350;2023-01-08T10:21:13;95980.22;;;6.66;100.00
64610;BME280;51019;46.090;6.350;2023-01-08T10:23:48;95991.13;;;6.90;100.00
64610;BME280;51019;46.090;6.350;2023-01-08T10:26:25;95968.66;;;6.99;100.00
64610;BME280;51019;46.090;6.350;2023-01-08T10:29:05;95945.19;;;6.89;100.00
64610;BME280;51019;46.090;6.350;2023-01-08T10:31:44;95886.75;;;6.63;100.00
64610;BME280;51019;46.090;6.350;2023-01-08T10:34:23;95852.72;;;6.45;100.00
64610;BME280;51019;46.090;6.350;2023-01-08T10:36:52;95834.72;;;6.33;100.00
64610;BME280;51019;46.090;6.350;2023-01-08T10:39:22;95918.31;;;6.89;100.00
64610;BME280;51019;46.090;6.350;2023-01-08T10:41:54;95846.03;;;6.43;100.00
64610;BME280;51019;46.090;6.350;2023-01-08T10:44:23;95895.16;;;6.86;100.00
64610;BME280;51019;46.090;6.350;2023-01-08T10:46:56;95881.13;;;6.68;100.00
64610;BME280;51019;46.090;6.350;2023-01-08T10:49:30;95890.09;;;6.94;100.00
64610;BME280;51019;46.090;6.350;2023-01-08T10:51:59;95890.63;;;6.88;100.00
64610;BME280;51019;46.090;6.350;2023-01-08T10:54:37;95896.25;;;6.83;100.00
64610;BME280;51019;46.090;6.350;2023-01-08T10:57:19;95898.59;;;6.86;100.00
64610;BME280;51019;46.090;6.350;2023-01-08T10:59:46;95896.38;;;6.82;100.00
64610;BME280;51019;46.090;6.350;2023-01-08T11:02:28;95903.34;;;6.81;100.00
64610;BME280;51019;46.090;6.350;2023-01-08T11:04:57;95826.16;;;6.42;100.00
64610;BME280;51019;46.090;6.350;2023-01-08T11:07:25;95851.75;;;6.46;100.00
64610;BME280;51019;46.090;6.350;2023-01-08T11:09:53;95835.59;;;6.43;100.00
64610;BME280;51019;46.090;6.350;2023-01-08T11:12:30;95895.69;;;6.89;100.00
64610;BME280;51019;46.090;6.350;2023-01-08T11:14:59;95895.28;;;6.94;100.00
64610;BME280;51019;46.090;6.350;2023-01-08T11:17:28;95894.34;;;6.95;100.00
64610;BME280;51019;46.090;6.350;2023-01-08T11:20:06;95867.59;;;6.83;100.00
64610;BME280;51019;46.090;6.350;2023-01-08T11:22:34;95902.97;;;6.96;100.00
64610;BME280;51019;46.090;6.350;2023-01-08T11:25:01;95890.50;;;6.99;100.00
64610;BME280;51019;46.090;6.350;2023-01-08T11:27:32;95889.13;;;6.95;100.00
64610;BME280;51019;46.090;6.350;2023-01-08T11:30:04;95864.72;;;6.96;100.00
64610;BME280;51019;46.090;6.350;2023-01-08T11:32:42;95889.00;;;7.06;100.00
64610;BME280;51019;46.090;6.350;2023-01-08T11:35:16;95874.88;;;6.99;100.00
64610;BME280;51019;46.090;6.350;2023-01-08T11:37:49;95868.28;;;6.95;100.00
64610;BME280;51019;46.090;6.350;2023-01-08T11:40:25;95880.91;;;7.09;100.00
64610;BME280;51019;46.090;6.350;2023-01-08T11:43:13;95870.50;;;7.09;100.00
64610;BME280;51019;46.090;6.350;2023-01-08T11:45:54;95845.78;;;7.04;100.00
64610;BME280;51019;46.090;6.350;2023-01-08T11:48:33;95806.28;;;6.89;100.00
64610;BME280;51019;46.090;6.350;2023-01-08T11:51:35;95841.69;;;7.11;100.00
64610;BME280;51019;46.090;6.350;2023-01-08T11:54:11;95864.16;;;7.31;100.00
64610;BME280;51019;46.090;6.350;2023-01-08T11:56:53;95856.50;;;7.20;100.00
64610;BME280;51019;46.090;6.350;2023-01-08T11:59:28;95844.41;;;7.28;100.00
64610;BME280;51019;46.090;6.350;2023-01-08T12:02:03;95841.81;;;7.19;100.00
64610;BME280;51019;46.090;6.350;2023-01-08T12:07:35;95772.19;;;6.82;100.00
64610;BME280;51019;46.090;6.350;2023-01-08T12:10:13;95845.38;;;7.27;100.00
64610;BME280;51019;46.090;6.350;2023-01-08T12:12:53;95787.78;;;7.02;100.00
64610;BME280;51019;46.090;6.350;2023-01-08T12:15:28;95801.22;;;7.16;100.00
64610;BME280;51019;46.090;6.350;2023-01-08T12:18:17;95802.16;;;7.15;100.00
64610;BME280;51019;46.090;6.350;2023-01-08T12:20:49;95803.94;;;7.24;100.00
64610;BME280;51019;46.090;6.350;2023-01-08T12:23:33;95797.75;;;7.35;100.00
64610;BME280;51019;46.090;6.350;2023-01-08T12:26:08;95797.47;;;7.38;100.00
64610;BME280;51019;46.090;6.350;2023-01-08T12:29:05;95794.47;;;7.43;100.00
64610;BME280;51019;46.090;6.350;2023-01-08T12:34:34;95765.91;;;7.41;100.00
64610;BME280;51019;46.090;6.350;2023-01-08T12:37:11;95750.69;;;7.37;100.00
64610;BME280;51019;46.090;6.350;2023-01-08T12:39:47;95757.38;;;7.49;100.00
64610;BME280;51019;46.090;6.350;2023-01-08T12:42:18;95753.13;;;7.48;100.00
64610;BME280;51019;46.090;6.350;2023-01-08T12:44:51;95753.38;;;7.54;100.00
64610;BME280;51019;46.090;6.350;2023-01-08T12:47:24;95693.13;;;7.20;100.00
64610;BME280;51019;46.090;6.350;2023-01-08T12:49:58;95754.91;;;7.47;100.00
64610;BME280;51019;46.090;6.350;2023-01-08T12:52:33;95751.44;;;7.56;100.00
64610;BME280;51019;46.090;6.350;2023-01-08T12:55:16;95747.25;;;7.36;100.00
64610;BME280;51019;46.090;6.350;2023-01-08T12:57:50;95708.97;;;7.37;100.00
64610;BME280;51019;46.090;6.350;2023-01-08T13:00:22;95726.13;;;7.39;100.00
64610;BME280;51019;46.090;6.350;2023-01-08T13:02:56;95718.41;;;7.47;100.00
64610;BME280;51019;46.090;6.350;2023-01-08T13:05:30;95712.22;;;7.48;100.00
64610;BME280;51019;46.090;6.350;2023-01-08T13:07:59;95705.22;;;7.49;100.00
64610;BME280;51019;46.090;6.350;2023-01-08T13:10:35;95687.03;;;7.39;100.00
64610;BME280;51019;46.090;6.350;2023-01-08T13:13:04;95683.13;;;7.53;100.00
64610;BME280;51019;46.090;6.350;2023-01-08T13:15:33;95686.00;;;7.50;100.00
64610;BME280;51019;46.090;6.350;2023-01-08T13:18:06;95677.69;;;7.37;100.00
64610;BME280;51019;46.090;6.350;2023-01-08T13:20:41;95669.59;;;7.40;100.00
64610;BME280;51019;46.090;6.350;2023-01-08T13:23:23;95668.97;;;7.28;100.00